createdAt,value
2018-08-04T00:00:55.032Z,4.6
2018-08-04T00:03:54.940Z,4.6
2018-08-04T00:06:55.107Z,4.6
2018-08-04T00:09:55.163Z,4.6
2018-08-04T00:12:55.373Z,4.6
2018-08-04T00:15:55.114Z,4.6
2018-08-04T00:18:55.068Z,4.6
2018-08-04T00:21:54.899Z,4.6
2018-08-04T00:24:55.123Z,4.6
2018-08-04T00:27:55.137Z,4.6
2018-08-04T00:30:54.852Z,4.6
2018-08-04T00:33:55.140Z,4.6
2018-08-04T00:36:55.040Z,4.6
2018-08-04T00:39:54.974Z,4.6
2018-08-04T00:42:55.143Z,4.6
2018-08-04T00:45:54.962Z,4.6
2018-08-04T00:48:54.990Z,4.6
2018-08-04T00:51:54.962Z,4.6
2018-08-04T00:54:55.145Z,4.6
2018-08-04T00:57:54.948Z,4.6
2018-08-04T01:00:55.221Z,4.6
2018-08-04T01:03:55.352Z,4.6
2018-08-04T01:06:54.901Z,4.6
2018-08-04T01:09:55.071Z,4.6
2018-08-04T01:12:54.993Z,4.6
2018-08-04T01:15:54.881Z,4.6
2018-08-04T01:18:54.922Z,4.6
2018-08-04T01:21:55.205Z,4.6
2018-08-04T01:24:55.008Z,4.6
2018-08-04T01:27:55.152Z,4.6
2018-08-04T01:30:54.916Z,4.6
2018-08-04T01:33:55.571Z,4.6
2018-08-04T01:36:55.083Z,4.6
2018-08-04T01:39:55.161Z,4.6
2018-08-04T01:42:55.616Z,4.6
2018-08-04T01:45:55.013Z,4.6
2018-08-04T01:48:54.998Z,4.6
2018-08-04T01:51:54.928Z,4.6
2018-08-04T01:54:54.926Z,4.6
2018-08-04T01:57:55.066Z,4.6
2018-08-04T02:00:54.902Z,4.7
2018-08-04T02:03:54.874Z,4.7
2018-08-04T02:06:55.449Z,4.7
2018-08-04T02:09:54.963Z,4.7
2018-08-04T02:12:54.945Z,4.7
2018-08-04T02:15:55.563Z,4.7
2018-08-04T02:18:55.021Z,4.7
2018-08-04T02:21:55.008Z,4.7
2018-08-04T02:24:54.940Z,4.7
2018-08-04T02:27:54.902Z,4.7
2018-08-04T02:30:55.062Z,4.7
2018-08-04T02:33:55.056Z,4.7
2018-08-04T02:36:54.924Z,4.7
2018-08-04T02:39:54.918Z,4.7
2018-08-04T02:42:55.127Z,4.7
2018-08-04T02:45:54.836Z,4.7
2018-08-04T02:48:55.146Z,4.7
2018-08-04T02:51:55.043Z,4.7
2018-08-04T02:54:54.912Z,4.7
2018-08-04T02:57:55.290Z,4.7
2018-08-04T03:00:54.957Z,4.7
2018-08-04T03:03:54.884Z,4.7
2018-08-04T03:06:55.099Z,4.7
2018-08-04T03:09:54.956Z,4.7
2018-08-04T03:12:54.988Z,4.7
2018-08-04T03:15:55.221Z,4.7
2018-08-04T03:18:55.005Z,4.7
2018-08-04T03:21:54.936Z,4.7
2018-08-04T03:24:55.138Z,4.7
2018-08-04T03:27:55.295Z,4.7
2018-08-04T03:30:55.279Z,4.7
2018-08-04T03:33:55.020Z,4.7
2018-08-04T03:36:55.147Z,4.7
2018-08-04T03:39:55.016Z,4.7
2018-08-04T03:42:55.033Z,4.7
2018-08-04T03:45:54.896Z,4.7
2018-08-04T03:48:55.108Z,4.7
2018-08-04T03:51:55.132Z,4.7
2018-08-04T03:54:55.024Z,4.7
2018-08-04T03:57:55.136Z,4.7
2018-08-04T04:00:55.087Z,4.7
2018-08-04T04:03:54.942Z,4.7
2018-08-04T04:06:54.978Z,4.7
2018-08-04T04:09:55.071Z,4.7
2018-08-04T04:12:55.305Z,4.7
2018-08-04T04:15:55.031Z,4.7
2018-08-04T04:18:55.080Z,4.7
2018-08-04T04:21:55.169Z,4.7
2018-08-04T04:24:55.251Z,4.7
2018-08-04T04:27:54.921Z,4.7
2018-08-04T04:30:55.295Z,4.7
2018-08-04T04:33:55.128Z,4.7
2018-08-04T04:36:55.889Z,4.7
2018-08-04T04:39:55.078Z,4.7
2018-08-04T04:42:54.942Z,4.7
2018-08-04T04:45:55.162Z,4.7
2018-08-04T04:48:54.948Z,4.7
2018-08-04T04:51:55.100Z,4.7
2018-08-04T04:54:54.966Z,4.7
2018-08-04T04:57:54.997Z,4.7
2018-08-04T05:00:54.931Z,4.7
2018-08-04T05:03:54.899Z,4.7
2018-08-04T05:06:54.910Z,4.7
2018-08-04T05:09:55.588Z,4.7
2018-08-04T05:12:55.272Z,4.7
2018-08-04T05:15:55.026Z,4.7
2018-08-04T05:18:54.877Z,4.7
2018-08-04T05:21:55.154Z,4.7
2018-08-04T05:24:55.368Z,4.7
2018-08-04T05:27:55.089Z,4.7
2018-08-04T05:30:54.984Z,4.7
2018-08-04T05:33:55.006Z,4.7
2018-08-04T05:36:54.996Z,4.7
2018-08-04T05:39:55.028Z,4.7
2018-08-04T05:42:54.970Z,4.7
2018-08-04T05:45:55.059Z,4.7
2018-08-04T05:48:54.905Z,4.7
2018-08-04T05:51:54.876Z,4.7
2018-08-04T05:54:55.090Z,4.7
2018-08-04T05:57:55.555Z,4.7
2018-08-04T06:00:54.974Z,4.7
2018-08-04T06:03:54.875Z,4.7
2018-08-04T06:06:55.003Z,4.7
2018-08-04T06:09:55.067Z,4.7
2018-08-04T06:12:54.909Z,4.7
2018-08-04T06:15:54.860Z,4.7
2018-08-04T06:18:55.089Z,4.7
2018-08-04T06:21:55.463Z,4.7
2018-08-04T06:24:55.182Z,4.7
2018-08-04T06:27:54.990Z,4.7
2018-08-04T06:30:55.041Z,4.7
2018-08-04T06:33:54.917Z,4.7
2018-08-04T06:36:54.965Z,4.7
2018-08-04T06:39:55.072Z,4.7
2018-08-04T06:42:55.254Z,4.7
2018-08-04T06:45:55.096Z,4.7
2018-08-04T06:48:55.249Z,4.7
2018-08-04T06:51:54.982Z,4.7
2018-08-04T06:54:54.999Z,4.7
2018-08-04T06:57:54.996Z,4.7
2018-08-04T07:00:55.305Z,4.7
2018-08-04T07:03:55.060Z,4.7
2018-08-04T07:06:54.993Z,4.7
2018-08-04T07:09:55.218Z,4.7
2018-08-04T07:12:54.873Z,4.7
2018-08-04T07:15:55.065Z,4.7
2018-08-04T07:18:55.024Z,4.7
2018-08-04T07:21:54.849Z,4.7
2018-08-04T07:24:54.933Z,4.7
2018-08-04T07:27:54.932Z,4.7
2018-08-04T07:30:54.882Z,4.7
2018-08-04T07:33:54.931Z,4.7
2018-08-04T07:36:54.913Z,4.7
2018-08-04T07:39:54.936Z,4.7
2018-08-04T07:42:54.867Z,4.7
2018-08-04T07:45:55.099Z,4.7
2018-08-04T07:48:55.143Z,4.7
2018-08-04T07:51:54.921Z,4.7
2018-08-04T07:54:55.094Z,4.7
2018-08-04T07:57:54.807Z,4.7
2018-08-04T08:00:54.979Z,4.7
2018-08-04T08:03:54.808Z,4.7
2018-08-04T08:06:54.914Z,4.7
2018-08-04T08:09:54.936Z,4.7
2018-08-04T08:12:55.131Z,4.7
2018-08-04T08:15:55.031Z,4.7
2018-08-04T08:18:54.957Z,4.7
2018-08-04T08:21:55.016Z,4.7
2018-08-04T08:24:55.744Z,4.7
2018-08-04T08:27:55.184Z,4.7
2018-08-04T08:30:55.123Z,4.7
2018-08-04T08:33:54.937Z,4.7
2018-08-04T08:36:54.996Z,4.7
2018-08-04T08:39:55.029Z,4.7
2018-08-04T08:42:55.056Z,4.7
2018-08-04T08:45:54.902Z,4.7
2018-08-04T08:48:54.899Z,4.7
2018-08-04T08:51:54.911Z,4.7
2018-08-04T08:54:55.011Z,4.7
2018-08-04T08:57:55.038Z,4.7
2018-08-04T09:00:55.029Z,4.7
2018-08-04T09:03:55.109Z,4.7
2018-08-04T09:06:54.956Z,4.7
2018-08-04T09:09:54.900Z,4.7
2018-08-04T09:12:54.937Z,4.7
2018-08-04T09:15:55.001Z,4.7
2018-08-04T09:18:54.964Z,4.7
2018-08-04T09:21:54.994Z,4.7
2018-08-04T09:24:54.915Z,4.7
2018-08-04T09:27:54.954Z,4.7
2018-08-04T09:30:56.067Z,4.7
2018-08-04T09:33:54.953Z,4.7
2018-08-04T09:36:55.080Z,4.7
2018-08-04T09:39:54.877Z,4.7
2018-08-04T09:42:54.902Z,4.7
2018-08-04T09:45:54.993Z,4.7
2018-08-04T09:48:54.919Z,4.7
2018-08-04T09:51:54.888Z,4.7
2018-08-04T09:54:54.889Z,4.7
2018-08-04T09:57:55.059Z,4.7
2018-08-04T10:00:56.175Z,4.8
2018-08-04T10:03:54.964Z,4.8
2018-08-04T10:06:54.975Z,4.8
2018-08-04T10:09:54.747Z,4.8
2018-08-04T10:12:54.909Z,4.8
2018-08-04T10:15:54.947Z,4.8
2018-08-04T10:18:54.820Z,4.8
2018-08-04T10:21:54.935Z,4.8
2018-08-04T10:24:55.011Z,4.8
2018-08-04T10:27:54.817Z,4.8
2018-08-04T10:30:55.084Z,4.8
2018-08-04T10:33:55.077Z,4.8
2018-08-04T10:36:54.839Z,4.8
2018-08-04T10:39:55.916Z,4.8
2018-08-04T10:42:55.165Z,4.8
2018-08-04T10:45:54.953Z,4.8
2018-08-04T10:48:54.986Z,4.8
2018-08-04T10:51:54.945Z,4.8
2018-08-04T10:54:54.945Z,4.8
2018-08-04T10:57:54.851Z,4.8
2018-08-04T11:00:54.979Z,4.9
2018-08-04T11:03:55.764Z,4.9
2018-08-04T11:06:54.955Z,4.9
2018-08-04T11:09:55.109Z,4.9
2018-08-04T11:12:54.911Z,4.9
2018-08-04T11:15:55.349Z,4.9
2018-08-04T11:18:54.927Z,4.9
2018-08-04T11:21:55.078Z,4.9
2018-08-04T11:24:54.942Z,4.9
2018-08-04T11:27:55.128Z,4.9
2018-08-04T11:30:56.160Z,4.9
2018-08-04T11:33:54.997Z,4.9
2018-08-04T11:36:54.974Z,4.9
2018-08-04T11:39:54.969Z,4.9
2018-08-04T11:42:54.861Z,4.9
2018-08-04T11:45:55.191Z,4.9
2018-08-04T11:48:55.051Z,4.9
2018-08-04T11:51:55.026Z,4.9
2018-08-04T11:54:55.011Z,4.9
2018-08-04T11:57:54.966Z,4.9
2018-08-04T12:00:55.163Z,4.8
2018-08-04T12:03:55.075Z,4.8
2018-08-04T12:06:55.099Z,4.8
2018-08-04T12:09:54.944Z,4.8
2018-08-04T12:12:55.094Z,4.8
2018-08-04T12:15:54.857Z,4.8
2018-08-04T12:18:54.965Z,4.8
2018-08-04T12:21:54.953Z,4.8
2018-08-04T12:24:55.020Z,4.8
2018-08-04T12:27:55.021Z,4.8
2018-08-04T12:30:55.168Z,4.8
2018-08-04T12:33:55.087Z,4.8
2018-08-04T12:36:54.934Z,4.8
2018-08-04T12:39:55.049Z,4.8
2018-08-04T12:42:54.953Z,4.8
2018-08-04T12:45:56.944Z,4.8
2018-08-04T12:48:55.052Z,4.8
2018-08-04T12:51:55.200Z,4.8
2018-08-04T12:54:55.045Z,4.8
2018-08-04T12:57:55.133Z,4.8
2018-08-04T13:00:54.875Z,4.7
2018-08-04T13:03:55.002Z,4.7
2018-08-04T13:06:54.695Z,4.7
2018-08-04T13:09:55.068Z,4.7
2018-08-04T13:12:55.043Z,4.7
2018-08-04T13:15:54.778Z,4.7
2018-08-04T13:18:55.017Z,4.7
2018-08-04T13:21:55.554Z,4.7
2018-08-04T13:24:54.898Z,4.7
2018-08-04T13:27:54.976Z,4.7
2018-08-04T14:00:50.092Z,7.9
2018-08-04T14:03:50.226Z,7.9
2018-08-04T14:06:49.955Z,7.9
2018-08-04T15:00:55.402Z,8.9
2018-08-04T15:03:55.042Z,8.9
2018-08-04T15:06:55.088Z,8.9
2018-08-04T15:12:55.120Z,8.9
2018-08-04T15:15:55.159Z,8.9
2018-08-04T15:18:54.984Z,8.9
2018-08-04T15:21:54.902Z,8.9
2018-08-04T15:24:55.063Z,8.9
2018-08-04T15:27:55.336Z,8.9
2018-08-04T15:30:54.954Z,8.9
2018-08-04T15:33:55.582Z,8.9
2018-08-04T15:36:54.885Z,8.9
2018-08-04T15:42:54.978Z,8.9
2018-08-04T15:45:55.045Z,8.9
2018-08-04T15:48:55.074Z,8.9
2018-08-04T15:51:55.194Z,8.9
2018-08-04T15:54:54.861Z,8.9
2018-08-04T15:57:55.081Z,8.9
2018-08-04T16:00:55.023Z,8
2018-08-04T16:03:55.079Z,8
2018-08-04T16:06:55.122Z,8
2018-08-04T16:12:55.102Z,8
2018-08-04T16:15:54.996Z,8
2018-08-04T16:18:54.886Z,8
2018-08-04T16:21:55.040Z,8
2018-08-04T16:24:55.074Z,8
2018-08-04T16:27:55.133Z,8
2018-08-04T16:30:54.971Z,8
2018-08-04T16:33:55.113Z,8
2018-08-04T16:36:55.032Z,8
2018-08-04T16:42:54.820Z,8
2018-08-04T16:45:54.920Z,8
2018-08-04T16:48:54.911Z,8
2018-08-04T16:51:55.018Z,8
2018-08-04T16:54:55.249Z,8
2018-08-04T16:57:54.848Z,8
2018-08-04T17:00:54.920Z,7.5
2018-08-04T17:03:54.941Z,7.5
2018-08-04T17:06:54.982Z,7.5
2018-08-04T17:12:54.979Z,7.5
2018-08-04T17:15:54.898Z,7.5
2018-08-04T17:18:54.926Z,7.5
2018-08-04T17:21:55.563Z,7.5
2018-08-04T17:24:55.050Z,7.5
2018-08-04T17:27:55.113Z,7.5
2018-08-04T17:30:55.070Z,7.5
2018-08-04T17:33:55.021Z,7.5
2018-08-04T17:36:55.060Z,7.5
2018-08-04T17:42:54.953Z,7.5
2018-08-04T17:45:55.007Z,7.5
2018-08-04T17:48:54.973Z,7.5
2018-08-04T17:51:55.279Z,7.5
2018-08-04T17:54:55.104Z,7.5
2018-08-04T17:57:55.050Z,7.5
2018-08-04T18:00:54.867Z,7.6
2018-08-04T18:03:55.575Z,7.6
2018-08-04T18:06:54.816Z,7.6
2018-08-04T18:12:54.880Z,7.6
2018-08-04T18:15:54.830Z,7.6
2018-08-04T18:18:55.480Z,7.6
2018-08-04T18:21:55.017Z,7.6
2018-08-04T18:24:55.133Z,7.6
2018-08-04T18:27:55.060Z,7.6
2018-08-04T18:30:55.316Z,7.6
2018-08-04T18:33:54.969Z,7.6
2018-08-04T18:36:55.027Z,7.6
2018-08-04T18:42:54.857Z,7.6
2018-08-04T18:45:55.101Z,7.6
2018-08-04T18:48:55.099Z,7.6
2018-08-04T18:51:55.015Z,7.6
2018-08-04T18:54:55.223Z,7.6
2018-08-04T18:57:54.965Z,7.6
2018-08-04T19:00:55.014Z,7.7
2018-08-04T19:03:54.973Z,7.7
2018-08-04T19:06:54.895Z,7.7
2018-08-04T19:12:54.910Z,7.7
2018-08-04T19:15:55.855Z,7.7
2018-08-04T19:18:55.061Z,7.7
2018-08-04T19:21:55.079Z,7.7
2018-08-04T19:24:55.015Z,7.7
2018-08-04T19:27:55.928Z,7.7
2018-08-04T19:30:55.138Z,7.7
2018-08-04T19:33:55.086Z,7.7
2018-08-04T19:36:55.084Z,7.7
2018-08-04T19:42:55.123Z,7.7
2018-08-04T19:45:55.221Z,7.7
2018-08-04T19:48:55.118Z,7.7
2018-08-04T19:51:54.869Z,7.7
2018-08-04T19:54:54.933Z,7.7
2018-08-04T19:57:54.989Z,7.7
2018-08-04T20:00:55.148Z,7.6
2018-08-04T20:03:54.781Z,7.6
2018-08-04T20:06:55.121Z,7.6
2018-08-04T20:12:54.997Z,7.6
2018-08-04T20:15:54.992Z,7.6
2018-08-04T20:18:55.141Z,7.6
2018-08-04T20:21:54.889Z,7.6
2018-08-04T20:24:54.979Z,7.6
2018-08-04T20:27:55.019Z,7.6
2018-08-04T20:30:54.960Z,7.6
2018-08-04T20:33:54.921Z,7.6
2018-08-04T20:36:54.930Z,7.6
2018-08-04T20:42:54.827Z,7.6
2018-08-04T20:45:55.081Z,7.6
2018-08-04T20:48:54.797Z,7.6
2018-08-04T20:51:54.929Z,7.6
2018-08-04T20:54:54.972Z,7.6
2018-08-04T20:57:54.910Z,7.6
2018-08-04T21:00:54.981Z,7.4
2018-08-04T21:03:55.047Z,7.4
2018-08-04T21:06:54.840Z,7.4
2018-08-04T21:12:54.991Z,7.4
2018-08-04T21:15:54.743Z,7.4
2018-08-04T21:18:55.523Z,7.4
2018-08-04T21:21:54.880Z,7.4
2018-08-04T21:24:54.949Z,7.4
2018-08-04T21:27:54.997Z,7.4
2018-08-04T21:30:54.839Z,7.4
2018-08-04T21:33:54.813Z,7.4
2018-08-04T21:36:54.882Z,7.4
2018-08-04T21:42:54.830Z,7.4
2018-08-04T21:45:54.954Z,7.4
2018-08-04T21:48:54.915Z,7.4
2018-08-04T21:51:54.729Z,7.4
2018-08-04T21:54:54.843Z,7.4
2018-08-04T21:57:54.866Z,7.4
2018-08-04T22:00:54.736Z,7.2
2018-08-04T22:03:54.888Z,7.2
2018-08-04T22:06:54.911Z,7.2
2018-08-04T22:12:55.549Z,7.2
2018-08-04T22:15:55.037Z,7.2
2018-08-04T22:18:54.664Z,7.2
2018-08-04T22:21:54.946Z,7.2
2018-08-04T22:24:55.111Z,7.2
2018-08-04T22:27:54.759Z,7.2
2018-08-04T22:30:54.947Z,7.2
2018-08-04T22:33:54.973Z,7.2
2018-08-04T22:36:54.716Z,7.2
2018-08-04T22:42:55.098Z,7.2
2018-08-04T22:45:54.802Z,7.2
2018-08-04T22:48:54.884Z,7.2
2018-08-04T22:51:54.887Z,7.2
2018-08-04T22:54:54.834Z,7.2
2018-08-04T22:57:54.817Z,7.2
2018-08-04T23:00:54.795Z,7
2018-08-04T23:03:54.724Z,7
2018-08-04T23:06:54.791Z,7
2018-08-04T23:12:54.697Z,7
2018-08-04T23:15:54.723Z,7
2018-08-04T23:18:54.733Z,7
2018-08-04T23:21:54.698Z,7
2018-08-04T23:24:55.172Z,7
2018-08-04T23:27:54.978Z,7
2018-08-04T23:30:54.753Z,7
2018-08-04T23:33:54.871Z,7
2018-08-04T23:36:54.781Z,7
2018-08-04T23:42:55.245Z,7
2018-08-04T23:45:54.918Z,7
2018-08-04T23:48:54.662Z,7
2018-08-04T23:51:54.918Z,7
2018-08-04T23:54:54.883Z,7
2018-08-04T23:57:54.664Z,7
